Terminal Aerodrome Forecast
Issued by NWS

Current Version | Previous Version | Text Only | Print | Product List | Glossary On
Versions: 1 2 3 4 5 6 7 8 9 10 11 12 13 14
000
FTUS46 KLOX 250400 AAA
TAFWJF
TAF AMD
KWJF 250412Z 2504/2524 24018G28KT P6SM BKN150
     FM250500 28025G35KT P6SM BKN100
     FM251500 33016KT P6SM BKN100
     FM252000 36012KT P6SM SCT150=

USA.gov is the U.S. government's official web portal to all federal, state and local government web resources and services.